createdAt,value
2022-12-18T00:01:28.391Z,-2.17
2022-12-18T00:03:55.877Z,-2.08
2022-12-18T00:06:23.040Z,-2.11
2022-12-18T00:08:49.724Z,-2.19
2022-12-18T00:11:17.483Z,-2.07
2022-12-18T00:13:44.306Z,-2.08
2022-12-18T00:16:13.616Z,-2.09
2022-12-18T00:18:40.751Z,-2.10
2022-12-18T00:21:08.759Z,-2.22
2022-12-18T00:23:36.455Z,-2.10
2022-12-18T00:26:04.443Z,-1.95
2022-12-18T00:28:30.802Z,-1.98
2022-12-18T00:31:04.357Z,-1.97
2022-12-18T00:33:31.189Z,-2.07
2022-12-18T00:36:03.756Z,-2.15
2022-12-18T00:38:32.223Z,-2.37
2022-12-18T00:40:58.958Z,-2.21
2022-12-18T00:43:25.600Z,-2.19
2022-12-18T00:45:52.195Z,-2.40
2022-12-18T00:48:18.632Z,-2.33
2022-12-18T00:50:45.215Z,-2.46
2022-12-18T00:53:11.824Z,-2.39
2022-12-18T00:55:39.808Z,-2.31
2022-12-18T00:58:06.395Z,-2.53
2022-12-18T01:00:32.763Z,-2.39
2022-12-18T01:02:59.921Z,-2.40
2022-12-18T01:05:26.871Z,-2.38
2022-12-18T01:07:53.190Z,-2.52
2022-12-18T01:10:19.636Z,-2.51
2022-12-18T01:12:46.402Z,-2.53
2022-12-18T01:15:13.546Z,-2.53
2022-12-18T01:17:40.001Z,-2.78
2022-12-18T01:20:06.627Z,-2.65
2022-12-18T01:22:34.642Z,-3.01
2022-12-18T01:25:00.961Z,-2.97
2022-12-18T01:27:27.352Z,-2.97
2022-12-18T01:29:53.798Z,-3.09
2022-12-18T01:32:20.518Z,-3.00
2022-12-18T01:34:46.948Z,-3.11
2022-12-18T01:37:13.318Z,-3.00
2022-12-18T01:39:39.953Z,-3.08
2022-12-18T01:42:15.878Z,-3.03
2022-12-18T01:45:01.165Z,-3.02
2022-12-18T01:47:27.584Z,-2.94
2022-12-18T01:49:54.619Z,-2.95
2022-12-18T01:52:22.043Z,-2.88
2022-12-18T01:54:49.776Z,-2.90
2022-12-18T01:57:16.422Z,-2.92
2022-12-18T01:59:43.771Z,-2.95
2022-12-18T02:02:10.194Z,-3.05
2022-12-18T02:04:36.671Z,-2.93
2022-12-18T02:07:23.163Z,-2.93
2022-12-18T02:09:51.525Z,-2.88
2022-12-18T02:12:20.194Z,-2.91
2022-12-18T02:14:55.546Z,-2.99
2022-12-18T02:17:22.913Z,-3.02
2022-12-18T02:19:49.205Z,-3.07
2022-12-18T02:22:25.099Z,-3.01
2022-12-18T02:24:59.634Z,-3.09
2022-12-18T02:27:27.076Z,-3.11
2022-12-18T02:29:58.502Z,-3.15
2022-12-18T02:32:28.398Z,-3.08
2022-12-18T02:34:56.913Z,-3.09
2022-12-18T02:37:24.257Z,-3.06
2022-12-18T02:39:52.714Z,-3.14
2022-12-18T02:42:19.602Z,-3.12
2022-12-18T02:44:46.971Z,-3.18
2022-12-18T02:47:14.421Z,-3.20
2022-12-18T02:50:03.332Z,-3.35
2022-12-18T02:52:48.170Z,-3.38
2022-12-18T02:55:33.687Z,-3.58
2022-12-18T02:58:03.330Z,-3.56
2022-12-18T03:00:32.994Z,-3.89
2022-12-18T03:03:14.515Z,-3.64
2022-12-18T03:05:51.194Z,-3.86
2022-12-18T03:08:30.975Z,-3.75
2022-12-18T03:11:05.616Z,-3.76
2022-12-18T03:13:34.318Z,-3.88
2022-12-18T03:16:01.385Z,-3.74
2022-12-18T03:18:31.178Z,-3.80
2022-12-18T03:20:59.998Z,-3.79
2022-12-18T03:23:28.478Z,-3.71
2022-12-18T03:25:57.602Z,-3.81
2022-12-18T03:28:24.378Z,-3.77
2022-12-18T03:30:57.448Z,-3.74
2022-12-18T03:33:27.823Z,-3.80
2022-12-18T03:35:54.343Z,-3.85
2022-12-18T03:38:20.727Z,-4.02
2022-12-18T03:41:06.024Z,-3.97
2022-12-18T03:43:37.583Z,-3.83
2022-12-18T03:46:08.598Z,-4.06
2022-12-18T03:48:40.449Z,-4.05
2022-12-18T03:51:08.774Z,-4.05
2022-12-18T03:53:41.946Z,-4.07
2022-12-18T03:56:09.822Z,-3.97
2022-12-18T03:58:37.662Z,-4.07
2022-12-18T04:01:06.484Z,-4.13
2022-12-18T04:03:33.736Z,-4.17
2022-12-18T04:06:01.074Z,-4.18
2022-12-18T04:08:27.630Z,-4.17
2022-12-18T04:10:54.018Z,-4.04
2022-12-18T04:13:24.331Z,-4.01
2022-12-18T04:15:50.811Z,-4.20
2022-12-18T04:18:17.353Z,-4.16
2022-12-18T04:20:43.658Z,-4.28
2022-12-18T04:23:09.955Z,-4.21
2022-12-18T04:25:36.307Z,-4.16
2022-12-18T04:28:02.611Z,-4.13
2022-12-18T04:30:28.920Z,-4.13
2022-12-18T04:32:55.315Z,-4.11
2022-12-18T04:35:21.638Z,-4.12
2022-12-18T04:37:48.029Z,-4.24
2022-12-18T04:40:14.422Z,-4.11
2022-12-18T04:42:41.555Z,-4.16
2022-12-18T04:45:08.594Z,-4.20
2022-12-18T04:47:34.996Z,-4.23
2022-12-18T04:50:01.380Z,-4.19
2022-12-18T04:52:28.095Z,-4.13
2022-12-18T04:54:54.495Z,-4.19
2022-12-18T04:57:20.992Z,-4.16
2022-12-18T04:59:47.308Z,-4.09
2022-12-18T05:02:13.795Z,-4.16
2022-12-18T05:04:40.278Z,-4.20
2022-12-18T05:07:06.559Z,-4.12
2022-12-18T05:09:32.975Z,-4.12
2022-12-18T05:11:59.614Z,-4.28
2022-12-18T05:14:25.938Z,-4.20
2022-12-18T05:16:54.814Z,-4.26
2022-12-18T05:19:24.308Z,-4.30
2022-12-18T05:21:50.612Z,-4.18
2022-12-18T05:24:16.975Z,-4.27
2022-12-18T05:26:43.318Z,-4.19
2022-12-18T05:29:13.076Z,-4.25
2022-12-18T05:31:40.468Z,-4.18
2022-12-18T05:34:08.513Z,-4.19
2022-12-18T05:36:34.895Z,-4.27
2022-12-18T05:39:01.322Z,-4.19
2022-12-18T05:41:27.955Z,-4.20
2022-12-18T05:43:54.278Z,-4.16
2022-12-18T05:46:20.836Z,-4.16
2022-12-18T05:48:47.834Z,-4.14
2022-12-18T05:51:15.819Z,-4.35
2022-12-18T05:53:43.504Z,-4.19
2022-12-18T05:56:11.875Z,-4.22
2022-12-18T05:58:38.709Z,-4.15
2022-12-18T06:01:16.652Z,-4.20
2022-12-18T06:03:43.697Z,-4.16
2022-12-18T06:06:28.765Z,-4.38
2022-12-18T06:08:55.682Z,-4.25
2022-12-18T06:11:23.260Z,-4.31
2022-12-18T06:13:58.234Z,-4.34
2022-12-18T06:16:25.853Z,-4.31
2022-12-18T06:18:52.226Z,-4.38
2022-12-18T06:21:18.599Z,-4.44
2022-12-18T06:23:44.962Z,-4.42
2022-12-18T06:26:12.378Z,-4.60
2022-12-18T06:28:38.962Z,-4.61
2022-12-18T06:31:05.766Z,-4.85
2022-12-18T06:33:32.498Z,-4.69
2022-12-18T06:36:02.694Z,-4.62
2022-12-18T06:38:29.031Z,-4.39
2022-12-18T06:40:55.370Z,-4.31
2022-12-18T06:43:21.804Z,-4.24
2022-12-18T06:45:53.528Z,-4.28
2022-12-18T06:48:20.690Z,-4.26
2022-12-18T06:50:47.593Z,-4.45
2022-12-18T06:53:13.961Z,-4.37
2022-12-18T06:55:40.386Z,-4.44
2022-12-18T06:58:07.912Z,-4.43
2022-12-18T07:00:34.684Z,-4.42
2022-12-18T07:03:01.068Z,-4.50
2022-12-18T07:05:27.608Z,-4.49
2022-12-18T07:07:53.996Z,-4.49
2022-12-18T07:10:20.393Z,-4.50
2022-12-18T07:12:46.688Z,-4.67
2022-12-18T07:15:12.995Z,-4.67
2022-12-18T07:17:39.314Z,-4.59
2022-12-18T07:20:05.831Z,-4.75
2022-12-18T07:22:32.189Z,-4.61
2022-12-18T07:24:58.560Z,-4.56
2022-12-18T07:27:24.875Z,-4.63
2022-12-18T07:29:51.226Z,-4.61
2022-12-18T07:32:17.571Z,-4.43
2022-12-18T07:34:43.899Z,-4.38
2022-12-18T07:37:10.590Z,-4.39
2022-12-18T07:39:36.959Z,-4.50
2022-12-18T07:42:21.851Z,-4.51
2022-12-18T07:44:49.624Z,-4.56
2022-12-18T07:47:15.957Z,-4.42
2022-12-18T07:49:42.275Z,-4.43
2022-12-18T07:52:10.393Z,-4.45
2022-12-18T07:54:36.764Z,-4.62
2022-12-18T07:57:03.149Z,-4.48
2022-12-18T07:59:29.544Z,-4.50
2022-12-18T08:01:56.127Z,-4.53
2022-12-18T08:04:22.652Z,-4.59
2022-12-18T08:06:49.170Z,-4.49
2022-12-18T08:09:15.479Z,-4.40
2022-12-18T08:11:41.778Z,-4.57
2022-12-18T08:14:08.171Z,-4.36
2022-12-18T08:16:34.619Z,-4.34
2022-12-18T08:19:01.034Z,-4.51
2022-12-18T08:21:28.560Z,-4.37
2022-12-18T08:23:56.414Z,-4.40
2022-12-18T08:26:23.034Z,-4.47
2022-12-18T08:28:49.665Z,-4.41
2022-12-18T08:31:17.109Z,-4.23
2022-12-18T08:33:43.882Z,-4.07
2022-12-18T08:36:10.792Z,-3.92
2022-12-18T08:38:37.325Z,-3.90
2022-12-18T08:41:05.087Z,-3.87
2022-12-18T08:43:50.244Z,-3.87
2022-12-18T08:46:17.078Z,-3.70
2022-12-18T08:48:43.449Z,-3.83
2022-12-18T08:51:12.938Z,-3.76
2022-12-18T08:53:39.977Z,-3.56
2022-12-18T08:56:06.640Z,-3.38
2022-12-18T08:58:33.025Z,-3.27
2022-12-18T09:01:06.005Z,-3.18
2022-12-18T09:03:32.600Z,-3.26
2022-12-18T09:05:58.946Z,-3.17
2022-12-18T09:08:25.305Z,-2.93
2022-12-18T09:10:52.206Z,-2.96
2022-12-18T09:13:19.086Z,-2.95
2022-12-18T09:15:46.550Z,-2.77
2022-12-18T09:18:13.624Z,-2.76
2022-12-18T09:20:40.468Z,-2.36
2022-12-18T09:23:07.084Z,-2.54
2022-12-18T09:25:34.168Z,-2.47
2022-12-18T09:28:01.113Z,-2.16
2022-12-18T09:30:27.864Z,-1.95
2022-12-18T09:32:54.248Z,-2.01
2022-12-18T09:35:20.548Z,-1.96
2022-12-18T09:37:46.925Z,-2.05
2022-12-18T09:40:21.200Z,-1.90
2022-12-18T09:42:52.381Z,-1.94
2022-12-18T09:45:19.389Z,-2.06
2022-12-18T09:47:46.500Z,-2.03
2022-12-18T09:50:33.546Z,-2.02
2022-12-18T09:53:03.803Z,-1.79
2022-12-18T09:55:37.475Z,-1.71
2022-12-18T09:58:22.511Z,-1.83
2022-12-18T10:00:48.884Z,-1.78
2022-12-18T10:03:16.037Z,-1.42
2022-12-18T10:05:43.063Z,-1.68
2022-12-18T10:08:18.382Z,-1.70
2022-12-18T10:10:49.784Z,-1.69
2022-12-18T10:13:24.158Z,-1.51
2022-12-18T10:16:09.936Z,-1.63
2022-12-18T10:18:36.223Z,-1.39
2022-12-18T10:21:10.588Z,-1.52
2022-12-18T10:23:48.332Z,-1.29
2022-12-18T10:26:15.068Z,-1.26
2022-12-18T10:28:42.647Z,-1.19
2022-12-18T10:31:24.718Z,-1.08
2022-12-18T10:33:51.753Z,-1.16
2022-12-18T10:36:18.089Z,-1.17
2022-12-18T10:38:44.615Z,-0.92
2022-12-18T10:41:21.908Z,-0.87
2022-12-18T10:43:48.468Z,-0.85
2022-12-18T10:46:17.039Z,-0.75
2022-12-18T10:48:52.990Z,-0.73
2022-12-18T10:51:22.353Z,-0.58
2022-12-18T10:53:53.521Z,-0.48
2022-12-18T10:56:21.195Z,-0.55
2022-12-18T10:58:58.042Z,-0.50
2022-12-18T11:01:24.461Z,-0.51
2022-12-18T11:03:50.897Z,-0.54
2022-12-18T11:06:18.650Z,-0.37
2022-12-18T11:08:57.671Z,-0.48
2022-12-18T11:11:24.790Z,-0.22
2022-12-18T11:14:11.392Z,-0.36
2022-12-18T11:16:57.856Z,-0.35
2022-12-18T11:19:34.497Z,-0.15
2022-12-18T11:22:01.620Z,-0.20
2022-12-18T11:24:32.644Z,-0.04
2022-12-18T11:27:01.481Z,-0.05
2022-12-18T11:29:36.163Z,-0.07
2022-12-18T11:32:20.543Z,-0.25
2022-12-18T11:34:50.944Z,-0.22
2022-12-18T11:37:20.322Z,-0.40
2022-12-18T11:39:50.781Z,-0.17
2022-12-18T11:42:25.076Z,-0.39
2022-12-18T11:45:10.320Z,-0.48
2022-12-18T11:47:45.811Z,-0.40
2022-12-18T11:50:19.998Z,-0.37
2022-12-18T11:52:47.754Z,-0.06
2022-12-18T11:55:36.455Z,-0.10
2022-12-18T11:58:06.264Z,-0.14
2022-12-18T12:00:32.668Z,-0.15
2022-12-18T12:03:22.249Z,-0.09
2022-12-18T12:05:58.393Z,-0.24
2022-12-18T12:08:31.031Z,-0.29
2022-12-18T12:11:07.821Z,-0.34
2022-12-18T12:13:37.339Z,-0.18
2022-12-18T12:16:22.864Z,-0.23
2022-12-18T12:18:49.191Z,-0.07
2022-12-18T12:21:24.499Z,-0.30
2022-12-18T12:24:03.086Z,-0.31
2022-12-18T12:26:48.256Z,-0.13
2022-12-18T12:29:34.057Z,-0.19
2022-12-18T12:32:05.621Z,-0.01
2022-12-18T12:34:38.051Z,-0.22
2022-12-18T12:37:23.412Z,0.06
2022-12-18T12:39:51.168Z,-0.08
2022-12-18T12:42:51.012Z,0.20
2022-12-18T12:45:22.676Z,0.11
2022-12-18T12:47:50.399Z,-0.24
2022-12-18T12:50:20.004Z,-0.11
2022-12-18T12:52:48.425Z,0.17
2022-12-18T12:55:29.116Z,0.16
2022-12-18T12:58:00.547Z,0.19
2022-12-18T13:00:28.876Z,-0.01
2022-12-18T13:02:55.206Z,0.19
2022-12-18T13:05:24.518Z,0.11
2022-12-18T13:07:55.941Z,0.49
2022-12-18T13:10:27.068Z,0.34
2022-12-18T13:12:56.643Z,0.23
2022-12-18T13:15:25.129Z,0.38
2022-12-18T13:18:10.269Z,0.42
2022-12-18T13:20:37.516Z,0.27
2022-12-18T13:23:23.402Z,0.48
2022-12-18T13:25:53.766Z,0.50
2022-12-18T13:28:40.407Z,0.46
2022-12-18T13:31:06.724Z,0.72
2022-12-18T13:33:56.242Z,0.47
2022-12-18T13:36:29.887Z,0.61
2022-12-18T13:39:18.459Z,0.28
2022-12-18T13:41:49.039Z,0.42
2022-12-18T13:44:38.521Z,0.59
2022-12-18T13:47:26.279Z,0.74
2022-12-18T13:49:53.523Z,0.66
2022-12-18T13:52:26.224Z,0.73
2022-12-18T13:54:54.511Z,0.70
2022-12-18T13:57:27.616Z,0.66
2022-12-18T13:59:54.079Z,0.74
2022-12-18T14:02:27.701Z,0.76
2022-12-18T14:04:54.719Z,0.88
2022-12-18T14:07:26.173Z,0.79
2022-12-18T14:10:01.996Z,0.85
2022-12-18T14:12:57.601Z,0.88
2022-12-18T14:15:23.865Z,0.89
2022-12-18T14:17:51.333Z,0.78
2022-12-18T14:20:18.251Z,0.76
2022-12-18T14:22:46.075Z,0.63
2022-12-18T14:25:18.871Z,0.40
2022-12-18T14:27:47.100Z,0.60
2022-12-18T14:30:25.571Z,0.63
2022-12-18T14:33:10.405Z,0.65
2022-12-18T14:35:38.743Z,0.65
2022-12-18T14:38:17.370Z,0.49
2022-12-18T14:40:44.154Z,0.60
2022-12-18T14:43:11.642Z,0.55
2022-12-18T14:45:43.906Z,0.38
2022-12-18T14:48:13.922Z,0.36
2022-12-18T14:50:42.444Z,0.24
2022-12-18T14:53:29.030Z,0.36
2022-12-18T14:55:55.384Z,0.19
2022-12-18T14:58:22.875Z,0.28
2022-12-18T15:00:49.295Z,0.34
2022-12-18T15:03:19.836Z,0.10
2022-12-18T15:05:46.354Z,0.29
2022-12-18T15:08:46.198Z,0.45
2022-12-18T15:11:31.467Z,0.28
2022-12-18T15:13:58.840Z,0.41
2022-12-18T15:16:25.342Z,0.46
2022-12-18T15:18:51.987Z,0.32
2022-12-18T15:21:19.599Z,0.17
2022-12-18T15:23:46.108Z,0.32
2022-12-18T15:26:14.223Z,0.51
2022-12-18T15:28:40.631Z,0.53
2022-12-18T15:31:10.273Z,0.56
2022-12-18T15:33:38.668Z,0.59
2022-12-18T15:36:08.772Z,0.81
2022-12-18T15:38:35.249Z,0.49
2022-12-18T15:41:02.627Z,0.75
2022-12-18T15:43:35.095Z,0.53
2022-12-18T15:46:02.399Z,0.56
2022-12-18T15:48:29.103Z,0.53
2022-12-18T15:50:57.715Z,0.54
2022-12-18T15:53:24.811Z,0.67
2022-12-18T15:56:09.698Z,0.67
2022-12-18T15:58:36.862Z,0.78
2022-12-18T16:01:03.435Z,0.74
2022-12-18T16:03:29.994Z,0.60
2022-12-18T16:05:56.448Z,0.43
2022-12-18T16:08:24.120Z,0.70
2022-12-18T16:10:50.455Z,0.61
2022-12-18T16:13:19.862Z,0.78
2022-12-18T16:15:46.273Z,0.58
2022-12-18T16:18:12.617Z,0.89
2022-12-18T16:20:39.501Z,0.73
2022-12-18T16:23:06.208Z,0.90
2022-12-18T16:25:32.819Z,0.92
2022-12-18T16:27:59.212Z,0.93
2022-12-18T16:30:28.674Z,0.94
2022-12-18T16:32:59.285Z,0.82
2022-12-18T16:35:26.431Z,0.85
2022-12-18T16:37:53.198Z,0.63
2022-12-18T16:40:19.635Z,0.56
2022-12-18T16:42:46.843Z,0.52
2022-12-18T16:45:14.819Z,0.86
2022-12-18T16:47:41.200Z,0.77
2022-12-18T16:50:08.238Z,0.87
2022-12-18T16:52:34.948Z,0.75
2022-12-18T16:55:01.559Z,0.72
2022-12-18T16:57:28.032Z,0.83
2022-12-18T16:59:54.450Z,0.86
2022-12-18T17:02:25.465Z,0.97
2022-12-18T17:04:58.529Z,0.81
2022-12-18T17:07:25.386Z,0.86
2022-12-18T17:09:53.922Z,0.81
2022-12-18T17:12:20.704Z,0.75
2022-12-18T17:14:47.068Z,0.88
2022-12-18T17:17:22.210Z,0.82
2022-12-18T17:19:50.098Z,1.02
2022-12-18T17:22:16.398Z,0.91
2022-12-18T17:24:42.710Z,0.83
2022-12-18T17:27:09.116Z,0.93
2022-12-18T17:29:35.967Z,1.07
2022-12-18T17:32:02.387Z,1.02
2022-12-18T17:34:29.041Z,1.03
2022-12-18T17:36:57.011Z,0.93
2022-12-18T17:39:23.392Z,1.05
2022-12-18T17:41:49.895Z,1.17
2022-12-18T17:44:16.780Z,1.21
2022-12-18T17:46:43.762Z,1.27
2022-12-18T17:49:10.664Z,1.13
2022-12-18T17:51:36.960Z,1.24
2022-12-18T17:54:04.147Z,1.11
2022-12-18T17:56:30.723Z,1.27
2022-12-18T17:58:57.047Z,1.39
2022-12-18T18:01:25.593Z,1.30
2022-12-18T18:03:52.424Z,1.32
2022-12-18T18:06:20.202Z,1.28
2022-12-18T18:08:46.570Z,1.32
2022-12-18T18:11:33.124Z,1.21
2022-12-18T18:14:02.968Z,1.21
2022-12-18T18:16:29.338Z,1.26
2022-12-18T18:18:59.768Z,1.21
2022-12-18T18:21:26.519Z,1.27
2022-12-18T18:23:52.873Z,1.19
2022-12-18T18:26:19.633Z,1.29
2022-12-18T18:28:46.136Z,1.35
2022-12-18T18:31:12.589Z,1.29
2022-12-18T18:33:39.353Z,1.25
2022-12-18T18:36:08.991Z,1.23
2022-12-18T18:38:35.294Z,1.38
2022-12-18T18:41:02.727Z,1.17
2022-12-18T18:43:29.806Z,1.30
2022-12-18T18:45:57.269Z,1.33
2022-12-18T18:48:23.738Z,1.37
2022-12-18T18:50:58.287Z,1.36
2022-12-18T18:53:25.193Z,1.35
2022-12-18T18:56:17.287Z,1.26
2022-12-18T18:58:38.295Z,1.36
2022-12-18T19:01:06.640Z,1.18
2022-12-18T19:03:33.447Z,1.35
2022-12-18T19:06:00.925Z,1.43
2022-12-18T19:08:28.344Z,1.45
2022-12-18T19:10:57.883Z,1.18
2022-12-18T19:13:26.590Z,1.35
2022-12-18T19:16:03.954Z,1.33
2022-12-18T19:18:30.521Z,1.33
2022-12-18T19:20:58.348Z,1.25
2022-12-18T19:23:25.026Z,1.35
2022-12-18T19:26:04.225Z,1.39
2022-12-18T19:28:38.337Z,1.39
2022-12-18T19:31:06.663Z,1.30
2022-12-18T19:33:42.782Z,1.36
2022-12-18T19:36:29.467Z,1.38
2022-12-18T19:38:57.867Z,1.42
2022-12-18T19:41:25.595Z,1.40
2022-12-18T19:43:52.806Z,1.30
2022-12-18T19:46:20.570Z,1.40
2022-12-18T19:48:47.529Z,1.46
2022-12-18T19:51:15.423Z,1.44
2022-12-18T19:53:41.801Z,1.44
2022-12-18T19:56:27.893Z,1.26
2022-12-18T19:58:54.405Z,1.44
2022-12-18T20:01:21.742Z,1.39
2022-12-18T20:03:52.538Z,1.43
2022-12-18T20:06:25.829Z,1.30
2022-12-18T20:08:54.022Z,1.56
2022-12-18T20:11:28.968Z,1.46
2022-12-18T20:13:55.413Z,1.34
2022-12-18T20:16:23.240Z,1.50
2022-12-18T20:18:50.212Z,1.40
2022-12-18T20:21:17.720Z,1.27
2022-12-18T20:23:45.089Z,1.36
2022-12-18T20:26:11.666Z,1.43
2022-12-18T20:28:40.355Z,1.45
2022-12-18T20:31:13.463Z,1.55
2022-12-18T20:33:41.455Z,1.49
2022-12-18T20:36:10.471Z,1.33
2022-12-18T20:38:38.933Z,1.59
2022-12-18T20:41:10.876Z,1.35
2022-12-18T20:43:37.874Z,1.40
2022-12-18T20:46:05.715Z,1.28
2022-12-18T20:48:32.605Z,1.13
2022-12-18T20:51:03.949Z,1.23
2022-12-18T20:53:30.588Z,1.46
2022-12-18T20:55:59.632Z,1.49
2022-12-18T20:58:25.907Z,1.54
2022-12-18T21:01:02.283Z,1.46
2022-12-18T21:03:28.798Z,1.48
2022-12-18T21:05:55.209Z,1.46
2022-12-18T21:08:21.596Z,1.53
2022-12-18T21:10:48.177Z,1.35
2022-12-18T21:13:15.443Z,1.51
2022-12-18T21:15:43.581Z,1.21
2022-12-18T21:18:09.963Z,1.39
2022-12-18T21:20:36.409Z,1.29
2022-12-18T21:23:11.266Z,1.41
2022-12-18T21:25:42.801Z,1.32
2022-12-18T21:28:09.220Z,1.26
2022-12-18T21:30:35.691Z,1.20
2022-12-18T21:33:02.920Z,1.25
2022-12-18T21:35:30.977Z,1.06
2022-12-18T21:37:58.654Z,1.20
2022-12-18T21:40:25.006Z,1.16
2022-12-18T21:43:10.273Z,1.35
2022-12-18T21:45:39.661Z,1.08
2022-12-18T21:48:06.138Z,1.08
2022-12-18T21:50:32.527Z,1.17
2022-12-18T21:52:58.981Z,1.14
2022-12-18T21:55:25.643Z,1.19
2022-12-18T21:57:53.491Z,1.32
2022-12-18T22:00:20.193Z,1.01
2022-12-18T22:02:47.139Z,1.13
2022-12-18T22:05:13.714Z,1.20
2022-12-18T22:07:40.368Z,0.93
2022-12-18T22:10:06.954Z,1.15
2022-12-18T22:12:44.403Z,1.11
2022-12-18T22:15:14.357Z,1.27
2022-12-18T22:17:47.672Z,1.24
2022-12-18T22:20:14.067Z,1.18
2022-12-18T22:22:43.473Z,1.12
2022-12-18T22:25:10.631Z,1.26
2022-12-18T22:27:37.568Z,1.15
2022-12-18T22:30:04.273Z,1.01
2022-12-18T22:32:31.767Z,1.23
2022-12-18T22:35:07.297Z,1.05
2022-12-18T22:37:37.292Z,0.93
2022-12-18T22:40:04.563Z,1.12
2022-12-18T22:42:31.308Z,1.20
2022-12-18T22:44:57.610Z,1.18
2022-12-18T22:47:29.246Z,1.17
2022-12-18T22:49:56.500Z,1.12
2022-12-18T22:52:24.820Z,1.16
2022-12-18T22:54:51.340Z,1.09
2022-12-18T22:57:20.183Z,1.04
2022-12-18T22:59:46.530Z,1.02
2022-12-18T23:02:12.931Z,1.11
2022-12-18T23:04:39.773Z,1.21
2022-12-18T23:07:06.435Z,1.17
2022-12-18T23:09:32.851Z,1.01
2022-12-18T23:11:59.316Z,1.06
2022-12-18T23:14:26.123Z,1.14
2022-12-18T23:16:53.146Z,1.17
2022-12-18T23:19:20.272Z,0.94
2022-12-18T23:21:46.936Z,1.13
2022-12-18T23:24:13.565Z,1.03
2022-12-18T23:26:40.183Z,1.10
2022-12-18T23:29:06.976Z,1.09
2022-12-18T23:31:34.753Z,1.13
2022-12-18T23:34:02.169Z,1.16
2022-12-18T23:36:29.032Z,1.21
2022-12-18T23:38:58.179Z,1.19
2022-12-18T23:41:25.722Z,1.10
2022-12-18T23:43:52.890Z,1.23
2022-12-18T23:46:27.263Z,1.13
2022-12-18T23:48:56.904Z,1.32
2022-12-18T23:51:25.139Z,1.28
2022-12-18T23:53:55.984Z,1.34
2022-12-18T23:56:22.986Z,1.49
2022-12-18T23:58:50.766Z,1.36
